createdAt,value
2018-12-30T00:01:47.678Z,-16.88
2018-12-30T00:04:20.743Z,-16.72
2018-12-30T00:06:54.850Z,-16.50
2018-12-30T00:09:28.350Z,-16.35
2018-12-30T00:12:01.322Z,-16.31
2018-12-30T00:14:34.853Z,-16.40
2018-12-30T00:17:09.571Z,-16.33
2018-12-30T00:19:42.770Z,-16.64
2018-12-30T00:22:15.752Z,-16.56
2018-12-30T00:24:48.747Z,-16.29
2018-12-30T00:27:21.898Z,-16.06
2018-12-30T00:29:54.994Z,-16.01
2018-12-30T00:32:28.363Z,-15.89
2018-12-30T00:35:01.332Z,-15.76
2018-12-30T00:37:34.398Z,-15.91
2018-12-30T00:40:07.552Z,-15.84
2018-12-30T00:42:40.937Z,-15.68
2018-12-30T00:45:13.941Z,-15.85
2018-12-30T00:47:47.569Z,-15.69
2018-12-30T00:50:20.576Z,-15.77
2018-12-30T00:52:53.775Z,-15.68
2018-12-30T00:55:26.889Z,-15.49
2018-12-30T00:57:59.878Z,-15.07
2018-12-30T01:00:33.332Z,-15.07
2018-12-30T01:03:07.239Z,-14.97
2018-12-30T01:05:40.344Z,-14.76
2018-12-30T01:08:13.407Z,-14.80
2018-12-30T01:10:46.369Z,-14.97
2018-12-30T01:13:19.476Z,-15.02
2018-12-30T01:15:52.642Z,-14.81
2018-12-30T01:18:25.623Z,-14.74
2018-12-30T01:20:58.568Z,-14.68
2018-12-30T01:23:31.790Z,-14.59
2018-12-30T01:26:05.369Z,-14.39
2018-12-30T01:28:38.098Z,-14.36
2018-12-30T01:31:10.990Z,-14.48
2018-12-30T01:33:44.064Z,-14.28
2018-12-30T01:36:17.041Z,-14.53
2018-12-30T01:38:49.984Z,-14.29
2018-12-30T01:41:23.096Z,-14.14
2018-12-30T01:43:56.298Z,-14.23
2018-12-30T01:46:29.492Z,-14.01
2018-12-30T01:49:02.654Z,-13.85
2018-12-30T01:51:35.788Z,-13.88
2018-12-30T01:54:08.817Z,-13.76
2018-12-30T01:56:41.862Z,-13.45
2018-12-30T01:59:14.848Z,-13.43
2018-12-30T02:01:47.708Z,-13.33
2018-12-30T02:04:20.829Z,-12.94
2018-12-30T02:06:54.000Z,-12.68
2018-12-30T02:09:27.080Z,-13.03
2018-12-30T02:12:00.245Z,-12.96
2018-12-30T02:14:33.982Z,-12.82
2018-12-30T02:17:07.260Z,-12.81
2018-12-30T02:19:40.440Z,-12.94
2018-12-30T02:22:13.500Z,-12.96
2018-12-30T02:24:47.071Z,-12.95
2018-12-30T02:27:20.205Z,-12.72
2018-12-30T02:29:54.778Z,-12.79
2018-12-30T02:32:27.759Z,-12.50
2018-12-30T02:35:01.654Z,-12.43
2018-12-30T02:37:35.900Z,-12.35
2018-12-30T02:40:09.104Z,-12.40
2018-12-30T02:42:42.193Z,-12.89
2018-12-30T02:45:15.435Z,-12.59
2018-12-30T02:47:48.834Z,-12.40
2018-12-30T02:50:23.659Z,-12.38
2018-12-30T02:52:58.617Z,-12.08
2018-12-30T02:55:31.954Z,-12.14
2018-12-30T02:58:05.575Z,-11.96
2018-12-30T03:00:39.187Z,-11.88
2018-12-30T03:03:12.779Z,-11.74
2018-12-30T03:05:46.982Z,-11.45
2018-12-30T03:08:20.767Z,-11.23
2018-12-30T03:10:54.249Z,-10.79
2018-12-30T03:13:27.325Z,-10.40
2018-12-30T03:16:00.440Z,-10.23
2018-12-30T03:18:33.425Z,-10.16
2018-12-30T03:21:06.684Z,-9.67
2018-12-30T03:23:39.870Z,-10.29
2018-12-30T03:26:12.996Z,-10.33
2018-12-30T03:28:45.946Z,-10.18
2018-12-30T03:31:18.966Z,-10.16
2018-12-30T03:33:52.082Z,-10.07
2018-12-30T03:36:25.359Z,-10.34
2018-12-30T03:38:58.575Z,-9.98
2018-12-30T03:41:32.294Z,-9.94
2018-12-30T03:44:05.494Z,-10.45
2018-12-30T03:46:38.537Z,-10.10
2018-12-30T03:49:11.457Z,-10.10
2018-12-30T03:51:44.315Z,-10.02
2018-12-30T03:54:17.322Z,-9.99
2018-12-30T03:56:50.326Z,-9.51
2018-12-30T03:59:23.433Z,-9.90
2018-12-30T04:01:56.730Z,-9.71
2018-12-30T04:04:29.931Z,-9.54
2018-12-30T04:07:04.983Z,-9.57
2018-12-30T04:09:38.056Z,-9.49
2018-12-30T04:12:13.829Z,-9.95
2018-12-30T04:14:45.509Z,-9.78
2018-12-30T04:17:19.437Z,-9.75
2018-12-30T04:19:52.815Z,-9.97
2018-12-30T04:22:26.057Z,-9.66
2018-12-30T04:24:58.850Z,-9.74
2018-12-30T04:27:32.271Z,-9.63
2018-12-30T04:30:06.402Z,-9.92
2018-12-30T04:32:40.040Z,-9.79
2018-12-30T04:35:12.901Z,-9.80
2018-12-30T04:37:45.870Z,-9.44
2018-12-30T04:40:18.959Z,-9.54
2018-12-30T04:42:51.790Z,-9.45
2018-12-30T04:45:24.842Z,-9.18
2018-12-30T04:47:58.170Z,-9.51
2018-12-30T04:50:30.888Z,-9.57
2018-12-30T04:53:03.852Z,-9.55
2018-12-30T04:55:36.829Z,-9.64
2018-12-30T04:58:10.090Z,-9.94
2018-12-30T05:00:43.567Z,-9.45
2018-12-30T05:03:17.284Z,-9.41
2018-12-30T05:05:50.582Z,-9.56
2018-12-30T05:08:23.781Z,-9.76
2018-12-30T05:10:56.642Z,-9.59
2018-12-30T05:13:29.750Z,-9.45
2018-12-30T05:16:02.491Z,-9.22
2018-12-30T05:18:35.531Z,-9.52
2018-12-30T05:21:08.463Z,-9.66
2018-12-30T05:23:42.093Z,-9.42
2018-12-30T05:26:15.610Z,-9.32
2018-12-30T05:28:48.713Z,-9.21
2018-12-30T05:31:21.549Z,-9.56
2018-12-30T05:33:54.405Z,-9.27
2018-12-30T05:36:27.263Z,-9.48
2018-12-30T05:39:00.470Z,-9.35
2018-12-30T05:41:33.496Z,-9.11
2018-12-30T05:44:06.526Z,-9.36
2018-12-30T05:46:39.445Z,-9.57
2018-12-30T05:49:12.423Z,-9.45
2018-12-30T05:51:45.403Z,-9.60
2018-12-30T05:54:18.410Z,-9.45
2018-12-30T05:56:51.314Z,-9.51
2018-12-30T05:59:24.634Z,-9.66
2018-12-30T06:01:57.757Z,-9.55
2018-12-30T06:04:31.200Z,-9.52
2018-12-30T06:07:04.292Z,-9.58
2018-12-30T06:09:37.314Z,-9.52
2018-12-30T06:12:10.340Z,-9.44
2018-12-30T06:14:43.454Z,-9.79
2018-12-30T06:17:16.588Z,-9.92
2018-12-30T06:19:49.850Z,-9.86
2018-12-30T06:22:22.875Z,-9.85
2018-12-30T06:24:55.870Z,-9.80
2018-12-30T06:27:29.304Z,-9.82
2018-12-30T06:30:02.363Z,-9.78
2018-12-30T06:32:35.374Z,-10.05
2018-12-30T06:35:08.364Z,-10.03
2018-12-30T06:37:42.353Z,-9.85
2018-12-30T06:40:15.372Z,-9.93
2018-12-30T06:42:48.458Z,-10.14
2018-12-30T06:45:22.625Z,-10.09
2018-12-30T06:48:05.097Z,-10.10
2018-12-30T06:50:42.973Z,-10.27
2018-12-30T06:53:16.785Z,-10.25
2018-12-30T06:55:51.595Z,-9.90
2018-12-30T06:58:26.691Z,-9.88
2018-12-30T07:01:00.241Z,-9.93
2018-12-30T07:03:35.191Z,-9.97
2018-12-30T07:06:27.680Z,-10.12
2018-12-30T07:09:00.732Z,-10.21
2018-12-30T07:11:33.729Z,-10.25
2018-12-30T07:14:09.169Z,-10.32
2018-12-30T07:16:41.265Z,-10.22
2018-12-30T07:19:14.043Z,-10.24
2018-12-30T07:21:47.339Z,-10.32
2018-12-30T07:24:20.733Z,-10.27
2018-12-30T07:26:53.750Z,-10.40
2018-12-30T07:29:26.910Z,-10.42
2018-12-30T07:31:59.904Z,-10.47
2018-12-30T07:34:34.460Z,-10.55
2018-12-30T07:37:07.448Z,-10.60
2018-12-30T07:39:40.781Z,-10.55
2018-12-30T07:42:14.670Z,-10.53
2018-12-30T07:44:47.403Z,-10.49
2018-12-30T07:47:20.341Z,-10.60
2018-12-30T07:49:53.679Z,-10.70
2018-12-30T07:52:26.873Z,-10.76
2018-12-30T07:55:00.083Z,-10.94
2018-12-30T07:57:33.370Z,-11.05
2018-12-30T08:00:07.906Z,-11.03
2018-12-30T08:02:40.529Z,-11.00
2018-12-30T08:05:13.259Z,-11.00
2018-12-30T08:07:46.239Z,-11.07
2018-12-30T08:10:19.311Z,-11.16
2018-12-30T08:12:52.498Z,-11.21
2018-12-30T08:15:25.449Z,-11.29
2018-12-30T08:18:04.054Z,-11.35
2018-12-30T08:20:38.907Z,-11.31
2018-12-30T08:23:11.444Z,-11.38
2018-12-30T08:25:44.363Z,-11.34
2018-12-30T08:28:24.842Z,-11.55
2018-12-30T08:30:52.397Z,-11.56
2018-12-30T08:33:25.552Z,-11.48
2018-12-30T08:35:58.595Z,-11.42
2018-12-30T08:38:31.646Z,-11.44
2018-12-30T08:41:10.460Z,-11.57
2018-12-30T08:43:43.444Z,-11.52
2018-12-30T08:46:16.369Z,-11.66
2018-12-30T08:48:49.790Z,-11.83
2018-12-30T08:51:22.863Z,-11.92
2018-12-30T08:53:56.391Z,-11.93
2018-12-30T08:56:29.790Z,-11.86
2018-12-30T08:59:03.291Z,-12.00
2018-12-30T09:01:36.521Z,-12.18
2018-12-30T09:04:09.474Z,-12.21
2018-12-30T09:06:42.645Z,-12.08
2018-12-30T09:09:15.703Z,-12.20
2018-12-30T09:11:48.833Z,-12.29
2018-12-30T09:14:22.157Z,-12.42
2018-12-30T09:16:55.638Z,-12.47
2018-12-30T09:19:28.799Z,-12.57
2018-12-30T09:22:01.810Z,-12.54
2018-12-30T09:24:34.946Z,-12.54
2018-12-30T09:27:08.093Z,-12.64
2018-12-30T09:29:41.094Z,-12.69
2018-12-30T09:32:14.163Z,-12.53
2018-12-30T09:34:47.347Z,-12.65
2018-12-30T09:37:20.470Z,-12.74
2018-12-30T09:39:53.430Z,-12.86
2018-12-30T09:42:28.396Z,-12.85
2018-12-30T09:45:01.370Z,-12.94
2018-12-30T09:47:34.388Z,-12.92
2018-12-30T09:50:07.799Z,-12.90
2018-12-30T09:52:40.778Z,-13.08
2018-12-30T09:55:13.709Z,-13.14
2018-12-30T09:57:55.729Z,-13.14
2018-12-30T10:00:28.931Z,-13.24
2018-12-30T10:03:01.838Z,-13.15
2018-12-30T10:05:35.014Z,-13.09
2018-12-30T10:08:07.882Z,-13.33
2018-12-30T10:10:40.911Z,-13.33
2018-12-30T10:13:14.026Z,-13.23
2018-12-30T10:15:48.127Z,-13.30
2018-12-30T10:18:21.661Z,-13.37
2018-12-30T10:20:54.755Z,-13.32
2018-12-30T10:23:27.860Z,-13.40
2018-12-30T10:26:01.166Z,-13.39
2018-12-30T10:28:34.678Z,-13.39
2018-12-30T10:31:07.776Z,-13.39
2018-12-30T10:33:40.741Z,-13.47
2018-12-30T10:36:13.943Z,-13.54
2018-12-30T10:38:47.011Z,-13.44
2018-12-30T10:41:20.099Z,-13.59
2018-12-30T10:43:53.987Z,-13.59
2018-12-30T10:46:27.613Z,-13.66
2018-12-30T10:49:00.579Z,-13.63
2018-12-30T10:51:33.729Z,-13.64
2018-12-30T10:54:06.521Z,-13.77
2018-12-30T10:56:39.219Z,-13.80
2018-12-30T10:59:12.299Z,-13.89
2018-12-30T11:01:45.165Z,-14.00
2018-12-30T11:04:18.636Z,-13.99
2018-12-30T11:06:53.178Z,-14.00
2018-12-30T11:09:31.068Z,-13.98
2018-12-30T11:12:09.424Z,-13.82
2018-12-30T11:14:42.213Z,-13.93
2018-12-30T11:17:14.875Z,-13.79
2018-12-30T11:19:48.437Z,-13.80
2018-12-30T11:22:21.445Z,-13.72
2018-12-30T11:24:54.335Z,-13.75
2018-12-30T11:27:27.339Z,-13.79
2018-12-30T11:30:00.563Z,-13.78
2018-12-30T11:32:34.799Z,-13.85
2018-12-30T11:35:08.887Z,-13.84
2018-12-30T11:37:42.597Z,-13.78
2018-12-30T11:40:17.504Z,-13.78
2018-12-30T11:42:49.826Z,-13.86
2018-12-30T11:45:22.724Z,-13.89
2018-12-30T11:47:56.193Z,-13.91
2018-12-30T11:50:29.467Z,-13.86
2018-12-30T11:53:02.747Z,-13.95
2018-12-30T11:55:35.710Z,-14.07
2018-12-30T11:58:08.950Z,-14.07
2018-12-30T12:00:41.976Z,-14.11
2018-12-30T12:03:15.756Z,-14.17
2018-12-30T12:05:48.957Z,-14.28
2018-12-30T12:08:22.091Z,-14.21
2018-12-30T12:10:55.194Z,-14.21
2018-12-30T12:13:30.635Z,-14.24
2018-12-30T12:16:03.775Z,-14.29
2018-12-30T12:18:36.886Z,-14.35
2018-12-30T12:21:09.968Z,-14.53
2018-12-30T12:23:43.193Z,-14.57
2018-12-30T12:26:16.470Z,-14.59
2018-12-30T12:28:49.978Z,-14.46
2018-12-30T12:31:23.700Z,-14.45
2018-12-30T12:33:57.383Z,-14.48
2018-12-30T12:36:30.557Z,-14.53
2018-12-30T12:39:03.579Z,-14.56
2018-12-30T12:41:36.735Z,-14.55
2018-12-30T12:44:09.857Z,-14.52
2018-12-30T12:46:42.641Z,-14.54
2018-12-30T12:49:15.586Z,-14.61
2018-12-30T12:51:48.527Z,-14.51
2018-12-30T12:54:31.911Z,-14.51
2018-12-30T12:56:59.712Z,-14.51
2018-12-30T12:59:35.607Z,-14.68
2018-12-30T13:02:08.840Z,-14.65
2018-12-30T13:04:43.465Z,-14.57
2018-12-30T13:07:17.095Z,-14.55
2018-12-30T13:09:50.312Z,-14.67
2018-12-30T13:12:23.510Z,-14.72
2018-12-30T13:14:56.713Z,-14.69
2018-12-30T13:17:29.895Z,-14.59
2018-12-30T13:20:02.959Z,-14.63
2018-12-30T13:22:36.055Z,-14.60
2018-12-30T13:25:09.163Z,-14.74
2018-12-30T13:27:42.265Z,-14.82
2018-12-30T13:30:15.787Z,-14.87
2018-12-30T13:32:49.664Z,-14.86
2018-12-30T13:35:23.810Z,-14.86
2018-12-30T13:37:58.261Z,-14.74
2018-12-30T13:40:32.211Z,-14.82
2018-12-30T13:43:05.942Z,-14.88
2018-12-30T13:45:38.992Z,-14.90
2018-12-30T13:48:12.168Z,-15.00
2018-12-30T13:50:45.145Z,-14.92
2018-12-30T13:53:18.330Z,-14.87
2018-12-30T13:55:58.153Z,-15.20
2018-12-30T13:58:31.231Z,-15.20
2018-12-30T14:01:04.311Z,-15.13
2018-12-30T14:03:37.419Z,-15.29
2018-12-30T14:06:10.575Z,-15.31
2018-12-30T14:08:43.609Z,-15.31
2018-12-30T14:11:17.215Z,-15.19
2018-12-30T14:13:50.210Z,-15.32
2018-12-30T14:16:23.348Z,-15.45
2018-12-30T14:18:56.890Z,-15.44
2018-12-30T14:21:29.975Z,-15.44
2018-12-30T14:24:02.954Z,-15.45
2018-12-30T14:26:35.976Z,-15.49
2018-12-30T14:29:08.978Z,-15.40
2018-12-30T14:31:41.954Z,-15.37
2018-12-30T14:34:15.057Z,-15.37
2018-12-30T14:36:48.011Z,-15.44
2018-12-30T14:39:21.047Z,-15.51
2018-12-30T14:41:54.023Z,-15.47
2018-12-30T14:44:27.232Z,-15.49
2018-12-30T14:47:00.896Z,-15.54
2018-12-30T14:49:34.660Z,-15.54
2018-12-30T14:52:08.312Z,-15.54
2018-12-30T14:54:42.018Z,-15.63
2018-12-30T14:57:16.217Z,-15.57
2018-12-30T14:59:50.232Z,-15.57
2018-12-30T15:02:23.890Z,-15.67
2018-12-30T15:04:57.196Z,-15.64
2018-12-30T15:07:30.233Z,-15.59
2018-12-30T15:10:03.707Z,-15.56
2018-12-30T15:12:36.904Z,-15.58
2018-12-30T15:15:10.982Z,-15.52
2018-12-30T15:17:43.727Z,-15.63
2018-12-30T15:20:19.614Z,-15.59
2018-12-30T15:22:54.238Z,-15.74
2018-12-30T15:25:27.355Z,-15.82
2018-12-30T15:28:00.531Z,-15.95
2018-12-30T15:30:33.534Z,-15.98
2018-12-30T15:33:06.736Z,-15.90
2018-12-30T15:35:39.942Z,-16.07
2018-12-30T15:38:12.963Z,-16.04
2018-12-30T15:40:48.205Z,-15.99
2018-12-30T15:43:21.544Z,-16.09
2018-12-30T15:45:57.839Z,-16.12
2018-12-30T15:48:30.824Z,-16.13
2018-12-30T15:51:04.076Z,-16.22
2018-12-30T15:53:37.240Z,-16.33
2018-12-30T15:56:10.301Z,-16.33
2018-12-30T15:58:43.453Z,-16.21
2018-12-30T16:01:24.007Z,-16.27
2018-12-30T16:03:57.041Z,-16.19
2018-12-30T16:06:30.298Z,-16.22
2018-12-30T16:09:03.323Z,-16.30
2018-12-30T16:11:36.197Z,-16.30
2018-12-30T16:14:09.212Z,-16.30
2018-12-30T16:16:42.225Z,-16.49
2018-12-30T16:19:15.562Z,-16.49
2018-12-30T16:21:48.760Z,-16.54
2018-12-30T16:24:21.898Z,-16.54
2018-12-30T16:26:54.892Z,-16.48
2018-12-30T16:29:27.869Z,-16.46
2018-12-30T16:32:01.207Z,-16.59
2018-12-30T16:34:34.481Z,-16.59
2018-12-30T16:37:07.838Z,-16.62
2018-12-30T16:39:40.921Z,-16.56
2018-12-30T16:42:14.024Z,-16.54
2018-12-30T16:44:46.920Z,-16.54
2018-12-30T16:47:19.972Z,-16.53
2018-12-30T16:49:52.965Z,-16.76
2018-12-30T16:52:26.119Z,-16.66
2018-12-30T16:54:59.249Z,-16.68
2018-12-30T16:57:32.433Z,-16.86
2018-12-30T17:00:06.437Z,-16.82
2018-12-30T17:02:39.601Z,-16.74
2018-12-30T17:05:13.158Z,-16.64
2018-12-30T17:07:46.090Z,-16.54
2018-12-30T17:10:20.125Z,-16.54
2018-12-30T17:12:53.029Z,-16.60
2018-12-30T17:15:25.938Z,-16.50
2018-12-30T17:17:58.820Z,-16.43
2018-12-30T17:20:32.024Z,-16.49
2018-12-30T17:23:04.911Z,-16.49
2018-12-30T17:25:42.947Z,-16.60
2018-12-30T17:28:13.575Z,-16.55
2018-12-30T17:30:46.542Z,-16.55
2018-12-30T17:33:19.561Z,-16.53
2018-12-30T17:35:52.969Z,-16.53
2018-12-30T17:38:26.279Z,-16.54
2018-12-30T17:41:01.674Z,-16.70
2018-12-30T17:43:33.962Z,-16.78
2018-12-30T17:46:07.153Z,-16.69
2018-12-30T17:48:40.483Z,-16.67
2018-12-30T17:51:13.505Z,-16.74
2018-12-30T17:53:46.392Z,-16.78
2018-12-30T17:56:19.294Z,-16.93
2018-12-30T17:58:52.211Z,-17.06
2018-12-30T18:01:25.010Z,-16.91
2018-12-30T18:03:57.761Z,-16.93
2018-12-30T18:06:30.513Z,-16.99
2018-12-30T18:09:03.846Z,-16.87
2018-12-30T18:11:36.874Z,-16.93
2018-12-30T18:14:09.871Z,-17.03
2018-12-30T18:16:43.036Z,-16.90
2018-12-30T18:19:16.212Z,-17.06
2018-12-30T18:21:49.251Z,-17.12
2018-12-30T18:24:22.064Z,-17.26
2018-12-30T18:26:55.087Z,-17.13
2018-12-30T18:29:28.049Z,-17.09
2018-12-30T18:32:02.748Z,-17.21
2018-12-30T18:34:36.810Z,-17.24
2018-12-30T18:37:10.103Z,-17.18
2018-12-30T18:39:46.395Z,-17.20
2018-12-30T18:42:19.788Z,-17.31
2018-12-30T18:44:52.764Z,-17.54
2018-12-30T18:47:25.829Z,-17.43
2018-12-30T18:49:58.963Z,-17.46
2018-12-30T18:52:31.906Z,-17.38
2018-12-30T18:55:04.834Z,-17.28
2018-12-30T18:57:37.987Z,-17.45
2018-12-30T19:00:12.125Z,-17.52
2018-12-30T19:02:45.232Z,-17.44
2018-12-30T19:05:18.168Z,-17.32
2018-12-30T19:07:51.021Z,-17.34
2018-12-30T19:10:24.520Z,-17.44
2018-12-30T19:13:01.195Z,-17.50
2018-12-30T19:15:33.848Z,-17.45
2018-12-30T19:18:06.503Z,-17.47
2018-12-30T19:20:40.557Z,-17.49
2018-12-30T19:23:13.310Z,-17.39
2018-12-30T19:25:46.446Z,-17.38
2018-12-30T19:28:19.910Z,-17.40
2018-12-30T19:30:53.014Z,-17.46
2018-12-30T19:33:26.019Z,-17.41
2018-12-30T19:35:58.955Z,-17.42
2018-12-30T19:38:32.141Z,-17.51
2018-12-30T19:41:05.188Z,-17.48
2018-12-30T19:43:38.397Z,-17.61
2018-12-30T19:46:11.896Z,-17.59
2018-12-30T19:48:45.128Z,-17.59
2018-12-30T19:51:18.026Z,-17.63
2018-12-30T19:53:51.348Z,-17.58
2018-12-30T19:56:24.928Z,-17.59
2018-12-30T19:58:57.730Z,-17.63
2018-12-30T20:01:30.817Z,-17.68
2018-12-30T20:04:03.544Z,-17.62
2018-12-30T20:06:36.488Z,-17.61
2018-12-30T20:09:10.120Z,-17.62
2018-12-30T20:11:43.061Z,-17.68
2018-12-30T20:14:16.004Z,-17.71
2018-12-30T20:16:49.204Z,-17.65
2018-12-30T20:19:25.641Z,-17.66
2018-12-30T20:22:00.131Z,-17.79
2018-12-30T20:24:33.123Z,-17.77
2018-12-30T20:27:06.281Z,-17.73
2018-12-30T20:29:40.409Z,-17.73
2018-12-30T20:32:13.648Z,-17.70
2018-12-30T20:34:46.764Z,-17.57
2018-12-30T20:37:20.301Z,-17.57
2018-12-30T20:39:53.507Z,-17.61
2018-12-30T20:42:26.838Z,-17.61
2018-12-30T20:45:00.396Z,-17.57
2018-12-30T20:47:33.469Z,-17.71
2018-12-30T20:50:06.890Z,-17.62
2018-12-30T20:52:39.818Z,-17.79
2018-12-30T20:55:12.914Z,-17.77
2018-12-30T20:57:45.890Z,-17.72
2018-12-30T21:00:18.965Z,-17.72
2018-12-30T21:02:52.009Z,-17.64
2018-12-30T21:05:25.222Z,-17.71
2018-12-30T21:07:58.923Z,-17.78
2018-12-30T21:10:32.036Z,-17.90
2018-12-30T21:13:05.124Z,-17.96
2018-12-30T21:15:38.035Z,-17.87
2018-12-30T21:18:10.953Z,-17.87
2018-12-30T21:20:44.677Z,-17.97
2018-12-30T21:23:18.445Z,-17.97
2018-12-30T21:25:51.429Z,-17.93
2018-12-30T21:28:24.571Z,-17.93
2018-12-30T21:30:57.465Z,-17.94
2018-12-30T21:33:30.473Z,-17.94
2018-12-30T21:36:03.665Z,-17.95
2018-12-30T21:38:36.657Z,-17.95
2018-12-30T21:41:09.892Z,-17.93
2018-12-30T21:43:42.936Z,-17.90
2018-12-30T21:46:16.057Z,-17.87
2018-12-30T21:48:49.203Z,-17.87
2018-12-30T21:51:22.168Z,-18.03
2018-12-30T21:53:55.327Z,-17.91
2018-12-30T21:56:28.435Z,-17.85
2018-12-30T21:59:01.459Z,-17.97
2018-12-30T22:01:34.375Z,-18.15
2018-12-30T22:04:07.353Z,-18.15
2018-12-30T22:06:40.321Z,-18.15
2018-12-30T22:09:13.339Z,-18.01
2018-12-30T22:11:46.521Z,-18.09
2018-12-30T22:14:19.594Z,-18.15
2018-12-30T22:16:52.547Z,-18.19
2018-12-30T22:19:25.619Z,-18.24
2018-12-30T22:21:58.558Z,-18.14
2018-12-30T22:24:34.152Z,-18.08
2018-12-30T22:27:07.367Z,-18.17
2018-12-30T22:29:43.406Z,-18.28
2018-12-30T22:32:15.302Z,-18.25
2018-12-30T22:34:48.575Z,-18.20
2018-12-30T22:37:21.615Z,-18.19
2018-12-30T22:39:54.809Z,-18.21
2018-12-30T22:42:32.664Z,-18.19
2018-12-30T22:45:02.578Z,-18.32
2018-12-30T22:47:35.725Z,-18.31
2018-12-30T22:50:09.788Z,-18.36
2018-12-30T22:52:42.881Z,-18.32
2018-12-30T22:55:16.065Z,-18.30
2018-12-30T22:57:49.269Z,-18.41
2018-12-30T23:00:23.707Z,-18.33
2018-12-30T23:02:56.612Z,-18.32
2018-12-30T23:05:29.899Z,-18.33
2018-12-30T23:08:02.833Z,-18.44
2018-12-30T23:10:39.425Z,-18.32
2018-12-30T23:13:12.442Z,-18.42
2018-12-30T23:16:04.996Z,-18.44
2018-12-30T23:18:38.425Z,-18.50
2018-12-30T23:21:17.813Z,-18.51
2018-12-30T23:23:51.112Z,-18.47
2018-12-30T23:26:24.570Z,-18.39
2018-12-30T23:28:57.852Z,-18.42
2018-12-30T23:31:31.140Z,-18.37
2018-12-30T23:34:04.204Z,-18.35
2018-12-30T23:36:37.825Z,-18.35
2018-12-30T23:39:11.126Z,-18.42
2018-12-30T23:41:44.338Z,-18.18
2018-12-30T23:44:17.613Z,-18.23
2018-12-30T23:46:51.009Z,-18.11
2018-12-30T23:49:24.082Z,-18.11
2018-12-30T23:51:57.208Z,-17.98
2018-12-30T23:54:30.645Z,-17.97
2018-12-30T23:57:03.869Z,-17.96
2018-12-30T23:59:36.876Z,-17.90
